sensor_id;sensor_type;location;lat;lon;timestamp;temperature;humidity
59301;DHT22;45073;52.740;6.784;2023-07-13T00:00:21;16.20;99.90
59301;DHT22;45073;52.740;6.784;2023-07-13T00:02:47;16.10;99.90
59301;DHT22;45073;52.740;6.784;2023-07-13T00:05:13;16.10;99.90
59301;DHT22;45073;52.740;6.784;2023-07-13T00:07:38;16.10;99.90
59301;DHT22;45073;52.740;6.784;2023-07-13T00:10:05;16.00;99.90
59301;DHT22;45073;52.740;6.784;2023-07-13T00:12:33;15.90;99.90
59301;DHT22;45073;52.740;6.784;2023-07-13T00:15:00;15.90;99.90
59301;DHT22;45073;52.740;6.784;2023-07-13T00:17:27;16.00;99.90
59301;DHT22;45073;52.740;6.784;2023-07-13T00:19:54;15.90;99.90
59301;DHT22;45073;52.740;6.784;2023-07-13T00:22:21;15.90;99.90
59301;DHT22;45073;52.740;6.784;2023-07-13T00:24:47;16.00;99.90
59301;DHT22;45073;52.740;6.784;2023-07-13T00:27:13;16.10;99.90
59301;DHT22;45073;52.740;6.784;2023-07-13T00:29:39;16.00;99.90
59301;DHT22;45073;52.740;6.784;2023-07-13T00:32:06;16.00;99.90
59301;DHT22;45073;52.740;6.784;2023-07-13T00:34:32;15.90;99.90
59301;DHT22;45073;52.740;6.784;2023-07-13T00:36:58;16.00;99.90
59301;DHT22;45073;52.740;6.784;2023-07-13T00:39:24;15.90;99.90
59301;DHT22;45073;52.740;6.784;2023-07-13T00:41:50;15.90;99.90
59301;DHT22;45073;52.740;6.784;2023-07-13T00:44:17;15.90;99.90
59301;DHT22;45073;52.740;6.784;2023-07-13T00:46:42;15.80;99.90
59301;DHT22;45073;52.740;6.784;2023-07-13T00:49:13;15.80;99.90
59301;DHT22;45073;52.740;6.784;2023-07-13T00:54:17;15.90;99.90
59301;DHT22;45073;52.740;6.784;2023-07-13T00:56:44;15.80;99.90
59301;DHT22;45073;52.740;6.784;2023-07-13T00:59:12;15.90;99.90
59301;DHT22;45073;52.740;6.784;2023-07-13T01:01:38;16.00;99.90
59301;DHT22;45073;52.740;6.784;2023-07-13T01:04:05;16.00;99.90
59301;DHT22;45073;52.740;6.784;2023-07-13T01:06:37;16.10;99.90
59301;DHT22;45073;52.740;6.784;2023-07-13T01:09:04;16.10;99.90
59301;DHT22;45073;52.740;6.784;2023-07-13T01:11:30;16.10;99.90
59301;DHT22;45073;52.740;6.784;2023-07-13T01:13:55;16.10;99.90
59301;DHT22;45073;52.740;6.784;2023-07-13T01:16:26;16.10;99.90
59301;DHT22;45073;52.740;6.784;2023-07-13T01:18:53;16.10;99.90
59301;DHT22;45073;52.740;6.784;2023-07-13T01:21:18;16.10;99.90
59301;DHT22;45073;52.740;6.784;2023-07-13T01:23:44;16.10;99.90
59301;DHT22;45073;52.740;6.784;2023-07-13T01:26:10;16.00;99.90
59301;DHT22;45073;52.740;6.784;2023-07-13T01:28:37;16.10;99.90
59301;DHT22;45073;52.740;6.784;2023-07-13T01:31:03;16.10;99.90
59301;DHT22;45073;52.740;6.784;2023-07-13T01:33:29;16.10;99.90
59301;DHT22;45073;52.740;6.784;2023-07-13T01:35:55;16.20;99.90
59301;DHT22;45073;52.740;6.784;2023-07-13T01:38:24;16.20;99.90
59301;DHT22;45073;52.740;6.784;2023-07-13T01:40:51;16.10;99.90
59301;DHT22;45073;52.740;6.784;2023-07-13T01:43:17;16.10;99.90
59301;DHT22;45073;52.740;6.784;2023-07-13T01:45:43;16.10;99.90
59301;DHT22;45073;52.740;6.784;2023-07-13T01:48:10;16.20;99.90
59301;DHT22;45073;52.740;6.784;2023-07-13T01:50:36;16.20;99.90
59301;DHT22;45073;52.740;6.784;2023-07-13T01:53:02;16.20;99.90
59301;DHT22;45073;52.740;6.784;2023-07-13T01:55:29;16.20;99.90
59301;DHT22;45073;52.740;6.784;2023-07-13T01:57:55;16.20;99.90
59301;DHT22;45073;52.740;6.784;2023-07-13T02:00:21;16.10;99.90
59301;DHT22;45073;52.740;6.784;2023-07-13T02:02:47;16.20;99.90
59301;DHT22;45073;52.740;6.784;2023-07-13T02:05:13;16.20;99.90
59301;DHT22;45073;52.740;6.784;2023-07-13T02:07:39;16.20;99.90
59301;DHT22;45073;52.740;6.784;2023-07-13T02:10:06;16.30;99.90
59301;DHT22;45073;52.740;6.784;2023-07-13T02:12:33;16.30;99.90
59301;DHT22;45073;52.740;6.784;2023-07-13T02:14:58;16.30;99.90
59301;DHT22;45073;52.740;6.784;2023-07-13T02:17:25;16.30;99.90
59301;DHT22;45073;52.740;6.784;2023-07-13T02:19:51;16.20;99.90
59301;DHT22;45073;52.740;6.784;2023-07-13T02:22:16;16.30;99.90
59301;DHT22;45073;52.740;6.784;2023-07-13T02:24:42;16.20;99.90
59301;DHT22;45073;52.740;6.784;2023-07-13T02:27:08;16.20;99.90
59301;DHT22;45073;52.740;6.784;2023-07-13T02:29:33;16.20;99.90
59301;DHT22;45073;52.740;6.784;2023-07-13T02:31:59;16.20;99.90
59301;DHT22;45073;52.740;6.784;2023-07-13T02:34:25;16.20;99.90
59301;DHT22;45073;52.740;6.784;2023-07-13T02:36:50;16.20;99.90
59301;DHT22;45073;52.740;6.784;2023-07-13T02:39:16;16.30;99.90
59301;DHT22;45073;52.740;6.784;2023-07-13T02:41:42;16.30;99.90
59301;DHT22;45073;52.740;6.784;2023-07-13T02:44:07;16.20;99.90
59301;DHT22;45073;52.740;6.784;2023-07-13T02:46:35;16.20;99.90
59301;DHT22;45073;52.740;6.784;2023-07-13T02:49:01;16.30;99.90
59301;DHT22;45073;52.740;6.784;2023-07-13T02:51:30;16.30;99.90
59301;DHT22;45073;52.740;6.784;2023-07-13T02:53:56;16.30;99.90
59301;DHT22;45073;52.740;6.784;2023-07-13T02:56:27;16.20;99.90
59301;DHT22;45073;52.740;6.784;2023-07-13T02:58:53;16.20;99.90
59301;DHT22;45073;52.740;6.784;2023-07-13T03:01:20;16.20;99.90
59301;DHT22;45073;52.740;6.784;2023-07-13T03:03:47;16.10;99.90
59301;DHT22;45073;52.740;6.784;2023-07-13T03:06:14;16.20;99.90
59301;DHT22;45073;52.740;6.784;2023-07-13T03:08:40;16.20;99.90
59301;DHT22;45073;52.740;6.784;2023-07-13T03:11:17;16.20;99.90
59301;DHT22;45073;52.740;6.784;2023-07-13T03:13:44;16.20;99.90
59301;DHT22;45073;52.740;6.784;2023-07-13T03:16:10;16.10;99.90
59301;DHT22;45073;52.740;6.784;2023-07-13T03:18:37;16.20;99.90
59301;DHT22;45073;52.740;6.784;2023-07-13T03:21:03;16.20;99.90
59301;DHT22;45073;52.740;6.784;2023-07-13T03:23:29;16.10;99.90
59301;DHT22;45073;52.740;6.784;2023-07-13T03:26:07;16.10;99.90
59301;DHT22;45073;52.740;6.784;2023-07-13T03:28:33;16.20;99.90
59301;DHT22;45073;52.740;6.784;2023-07-13T03:31:10;16.10;99.90
59301;DHT22;45073;52.740;6.784;2023-07-13T03:33:36;16.10;99.90
59301;DHT22;45073;52.740;6.784;2023-07-13T03:36:04;16.10;99.90
59301;DHT22;45073;52.740;6.784;2023-07-13T03:38:30;16.10;99.90
59301;DHT22;45073;52.740;6.784;2023-07-13T03:40:56;16.00;99.90
59301;DHT22;45073;52.740;6.784;2023-07-13T03:43:22;16.10;99.90
59301;DHT22;45073;52.740;6.784;2023-07-13T03:45:47;16.10;99.90
59301;DHT22;45073;52.740;6.784;2023-07-13T03:48:13;16.10;99.90
59301;DHT22;45073;52.740;6.784;2023-07-13T03:50:39;16.10;99.90
59301;DHT22;45073;52.740;6.784;2023-07-13T03:53:05;16.00;99.90
59301;DHT22;45073;52.740;6.784;2023-07-13T03:55:31;16.10;99.90
59301;DHT22;45073;52.740;6.784;2023-07-13T03:58:24;16.00;99.90
59301;DHT22;45073;52.740;6.784;2023-07-13T04:00:50;16.00;99.90
59301;DHT22;45073;52.740;6.784;2023-07-13T04:03:16;16.00;99.90
59301;DHT22;45073;52.740;6.784;2023-07-13T04:05:41;16.00;99.90
59301;DHT22;45073;52.740;6.784;2023-07-13T04:08:07;16.00;99.90
59301;DHT22;45073;52.740;6.784;2023-07-13T04:10:33;16.00;99.90
59301;DHT22;45073;52.740;6.784;2023-07-13T04:12:58;15.90;99.90
59301;DHT22;45073;52.740;6.784;2023-07-13T04:15:24;15.90;99.90
59301;DHT22;45073;52.740;6.784;2023-07-13T04:17:49;15.90;99.90
59301;DHT22;45073;52.740;6.784;2023-07-13T04:20:15;15.90;99.90
59301;DHT22;45073;52.740;6.784;2023-07-13T04:22:41;15.90;99.90
59301;DHT22;45073;52.740;6.784;2023-07-13T04:25:07;15.90;99.90
59301;DHT22;45073;52.740;6.784;2023-07-13T04:27:32;15.90;99.90
59301;DHT22;45073;52.740;6.784;2023-07-13T04:29:58;15.90;99.90
59301;DHT22;45073;52.740;6.784;2023-07-13T04:32:23;15.80;99.90
59301;DHT22;45073;52.740;6.784;2023-07-13T04:34:49;15.80;99.90
59301;DHT22;45073;52.740;6.784;2023-07-13T04:37:20;15.90;99.90
59301;DHT22;45073;52.740;6.784;2023-07-13T04:39:46;15.80;99.90
59301;DHT22;45073;52.740;6.784;2023-07-13T04:42:12;15.80;99.90
59301;DHT22;45073;52.740;6.784;2023-07-13T04:44:37;15.80;99.90
59301;DHT22;45073;52.740;6.784;2023-07-13T04:47:03;15.70;99.90
59301;DHT22;45073;52.740;6.784;2023-07-13T04:49:29;15.70;99.90
59301;DHT22;45073;52.740;6.784;2023-07-13T04:51:55;15.70;99.90
59301;DHT22;45073;52.740;6.784;2023-07-13T04:54:21;15.60;99.90
59301;DHT22;45073;52.740;6.784;2023-07-13T04:56:47;15.70;99.90
59301;DHT22;45073;52.740;6.784;2023-07-13T04:59:13;15.70;99.90
59301;DHT22;45073;52.740;6.784;2023-07-13T05:01:39;15.60;99.90
59301;DHT22;45073;52.740;6.784;2023-07-13T05:04:06;15.60;99.90
59301;DHT22;45073;52.740;6.784;2023-07-13T05:06:32;15.70;99.90
59301;DHT22;45073;52.740;6.784;2023-07-13T05:08:57;15.70;99.90
59301;DHT22;45073;52.740;6.784;2023-07-13T05:11:23;15.70;99.90
59301;DHT22;45073;52.740;6.784;2023-07-13T05:13:49;15.70;99.90
59301;DHT22;45073;52.740;6.784;2023-07-13T05:16:14;15.70;99.90
59301;DHT22;45073;52.740;6.784;2023-07-13T05:18:40;15.70;99.90
59301;DHT22;45073;52.740;6.784;2023-07-13T05:21:08;15.70;99.90
59301;DHT22;45073;52.740;6.784;2023-07-13T05:23:35;15.70;99.90
59301;DHT22;45073;52.740;6.784;2023-07-13T05:26:02;15.80;99.90
59301;DHT22;45073;52.740;6.784;2023-07-13T05:28:29;15.90;99.90
59301;DHT22;45073;52.740;6.784;2023-07-13T05:30:55;15.90;99.90
59301;DHT22;45073;52.740;6.784;2023-07-13T05:33:21;16.00;99.90
59301;DHT22;45073;52.740;6.784;2023-07-13T05:35:47;16.10;99.90
59301;DHT22;45073;52.740;6.784;2023-07-13T05:38:12;16.10;99.90
59301;DHT22;45073;52.740;6.784;2023-07-13T05:40:38;16.10;99.90
59301;DHT22;45073;52.740;6.784;2023-07-13T05:43:04;16.10;99.90
59301;DHT22;45073;52.740;6.784;2023-07-13T05:45:29;16.20;99.90
59301;DHT22;45073;52.740;6.784;2023-07-13T05:47:55;16.30;99.90
59301;DHT22;45073;52.740;6.784;2023-07-13T05:50:21;16.30;99.90
59301;DHT22;45073;52.740;6.784;2023-07-13T05:52:47;16.40;99.90
59301;DHT22;45073;52.740;6.784;2023-07-13T05:55:12;16.40;99.90
59301;DHT22;45073;52.740;6.784;2023-07-13T05:57:38;16.40;99.90
59301;DHT22;45073;52.740;6.784;2023-07-13T06:00:05;16.40;99.90
59301;DHT22;45073;52.740;6.784;2023-07-13T06:02:30;16.50;99.90
59301;DHT22;45073;52.740;6.784;2023-07-13T06:04:56;16.60;99.90
59301;DHT22;45073;52.740;6.784;2023-07-13T06:07:21;16.70;99.90
59301;DHT22;45073;52.740;6.784;2023-07-13T06:09:47;16.70;99.90
59301;DHT22;45073;52.740;6.784;2023-07-13T06:12:12;16.80;99.90
59301;DHT22;45073;52.740;6.784;2023-07-13T06:14:38;16.90;99.90
59301;DHT22;45073;52.740;6.784;2023-07-13T06:17:04;17.00;99.90
59301;DHT22;45073;52.740;6.784;2023-07-13T06:19:30;17.00;99.90
59301;DHT22;45073;52.740;6.784;2023-07-13T06:21:55;17.10;99.90
59301;DHT22;45073;52.740;6.784;2023-07-13T06:24:21;17.10;99.90
59301;DHT22;45073;52.740;6.784;2023-07-13T06:26:47;17.20;99.90
59301;DHT22;45073;52.740;6.784;2023-07-13T06:29:13;17.20;99.90
59301;DHT22;45073;52.740;6.784;2023-07-13T06:31:38;17.30;99.90
59301;DHT22;45073;52.740;6.784;2023-07-13T06:34:04;17.30;99.90
59301;DHT22;45073;52.740;6.784;2023-07-13T06:36:29;17.30;99.90
59301;DHT22;45073;52.740;6.784;2023-07-13T06:38:55;17.40;99.90
59301;DHT22;45073;52.740;6.784;2023-07-13T06:41:20;17.50;99.90
59301;DHT22;45073;52.740;6.784;2023-07-13T06:43:47;17.60;99.90
59301;DHT22;45073;52.740;6.784;2023-07-13T06:46:13;17.70;99.90
59301;DHT22;45073;52.740;6.784;2023-07-13T06:48:38;17.70;99.90
59301;DHT22;45073;52.740;6.784;2023-07-13T06:51:04;17.80;99.90
59301;DHT22;45073;52.740;6.784;2023-07-13T06:53:29;17.90;99.90
59301;DHT22;45073;52.740;6.784;2023-07-13T06:55:55;18.00;99.90
59301;DHT22;45073;52.740;6.784;2023-07-13T06:58:21;18.10;99.90
59301;DHT22;45073;52.740;6.784;2023-07-13T07:00:50;18.20;99.90
59301;DHT22;45073;52.740;6.784;2023-07-13T07:03:16;18.30;99.90
59301;DHT22;45073;52.740;6.784;2023-07-13T07:05:42;18.40;99.90
59301;DHT22;45073;52.740;6.784;2023-07-13T07:08:08;18.50;99.90
59301;DHT22;45073;52.740;6.784;2023-07-13T07:10:33;18.50;99.90
59301;DHT22;45073;52.740;6.784;2023-07-13T07:12:59;18.50;99.90
59301;DHT22;45073;52.740;6.784;2023-07-13T07:15:25;18.50;99.90
59301;DHT22;45073;52.740;6.784;2023-07-13T07:17:51;18.50;99.90
59301;DHT22;45073;52.740;6.784;2023-07-13T07:20:17;18.40;99.90
59301;DHT22;45073;52.740;6.784;2023-07-13T07:22:42;18.40;99.90
59301;DHT22;45073;52.740;6.784;2023-07-13T07:25:08;18.40;99.90
59301;DHT22;45073;52.740;6.784;2023-07-13T07:27:33;18.40;99.90
59301;DHT22;45073;52.740;6.784;2023-07-13T07:29:59;18.40;99.90
59301;DHT22;45073;52.740;6.784;2023-07-13T07:32:25;18.40;99.90
59301;DHT22;45073;52.740;6.784;2023-07-13T07:34:51;18.40;99.90
59301;DHT22;45073;52.740;6.784;2023-07-13T07:37:16;18.30;99.90
59301;DHT22;45073;52.740;6.784;2023-07-13T07:39:45;18.30;99.90
59301;DHT22;45073;52.740;6.784;2023-07-13T07:42:11;18.30;99.90
59301;DHT22;45073;52.740;6.784;2023-07-13T07:44:39;18.20;99.90
59301;DHT22;45073;52.740;6.784;2023-07-13T07:47:06;18.10;99.90
59301;DHT22;45073;52.740;6.784;2023-07-13T07:49:32;18.20;99.90
59301;DHT22;45073;52.740;6.784;2023-07-13T07:51:57;18.20;99.90
59301;DHT22;45073;52.740;6.784;2023-07-13T07:54:23;18.20;99.90
59301;DHT22;45073;52.740;6.784;2023-07-13T07:56:48;18.20;99.90
59301;DHT22;45073;52.740;6.784;2023-07-13T07:59:14;18.20;99.90
59301;DHT22;45073;52.740;6.784;2023-07-13T08:01:40;18.30;99.90
59301;DHT22;45073;52.740;6.784;2023-07-13T08:04:05;18.30;99.90
59301;DHT22;45073;52.740;6.784;2023-07-13T08:06:32;18.40;99.90
59301;DHT22;45073;52.740;6.784;2023-07-13T08:08:59;18.50;99.90
59301;DHT22;45073;52.740;6.784;2023-07-13T08:11:25;18.60;99.90
59301;DHT22;45073;52.740;6.784;2023-07-13T08:13:50;18.60;99.90
59301;DHT22;45073;52.740;6.784;2023-07-13T08:16:16;18.70;99.90
59301;DHT22;45073;52.740;6.784;2023-07-13T08:18:42;18.80;99.90
59301;DHT22;45073;52.740;6.784;2023-07-13T08:21:08;18.80;99.90
59301;DHT22;45073;52.740;6.784;2023-07-13T08:23:34;18.80;99.90
59301;DHT22;45073;52.740;6.784;2023-07-13T08:26:00;18.90;99.90
59301;DHT22;45073;52.740;6.784;2023-07-13T08:28:27;18.90;99.90
59301;DHT22;45073;52.740;6.784;2023-07-13T08:30:53;19.10;99.90
59301;DHT22;45073;52.740;6.784;2023-07-13T08:33:20;19.10;99.90
59301;DHT22;45073;52.740;6.784;2023-07-13T08:35:47;19.20;99.90
59301;DHT22;45073;52.740;6.784;2023-07-13T08:38:13;19.20;99.90
59301;DHT22;45073;52.740;6.784;2023-07-13T08:40:39;19.20;99.90
59301;DHT22;45073;52.740;6.784;2023-07-13T08:43:12;19.20;99.90
59301;DHT22;45073;52.740;6.784;2023-07-13T08:45:57;19.30;99.90
59301;DHT22;45073;52.740;6.784;2023-07-13T08:48:35;19.30;99.90
59301;DHT22;45073;52.740;6.784;2023-07-13T08:53:54;19.40;99.90
59301;DHT22;45073;52.740;6.784;2023-07-13T08:56:24;19.40;99.90
59301;DHT22;45073;52.740;6.784;2023-07-13T08:58:55;19.50;99.90
59301;DHT22;45073;52.740;6.784;2023-07-13T09:04:37;19.50;99.90
59301;DHT22;45073;52.740;6.784;2023-07-13T09:07:40;19.50;99.90
59301;DHT22;45073;52.740;6.784;2023-07-13T09:10:32;19.50;99.90
59301;DHT22;45073;52.740;6.784;2023-07-13T09:13:43;19.40;99.90
59301;DHT22;45073;52.740;6.784;2023-07-13T09:16:07;19.10;99.90
59301;DHT22;45073;52.740;6.784;2023-07-13T09:18:38;18.90;99.90
59301;DHT22;45073;52.740;6.784;2023-07-13T09:21:12;18.80;99.90
59301;DHT22;45073;52.740;6.784;2023-07-13T09:23:39;18.80;99.90
59301;DHT22;45073;52.740;6.784;2023-07-13T09:26:18;18.80;99.90
59301;DHT22;45073;52.740;6.784;2023-07-13T09:28:48;18.70;99.90
59301;DHT22;45073;52.740;6.784;2023-07-13T09:53:24;16.00;99.90
59301;DHT22;45073;52.740;6.784;2023-07-13T09:55:56;16.20;99.90
59301;DHT22;45073;52.740;6.784;2023-07-13T09:58:25;16.10;99.90
59301;DHT22;45073;52.740;6.784;2023-07-13T10:00:58;16.10;99.90
59301;DHT22;45073;52.740;6.784;2023-07-13T10:03:28;16.20;99.90
59301;DHT22;45073;52.740;6.784;2023-07-13T10:06:09;16.10;99.90
59301;DHT22;45073;52.740;6.784;2023-07-13T10:08:36;16.10;99.90
59301;DHT22;45073;52.740;6.784;2023-07-13T10:11:18;16.20;99.90
59301;DHT22;45073;52.740;6.784;2023-07-13T10:13:57;16.30;99.90
59301;DHT22;45073;52.740;6.784;2023-07-13T10:16:26;16.40;99.90
59301;DHT22;45073;52.740;6.784;2023-07-13T10:19:04;16.50;99.90
59301;DHT22;45073;52.740;6.784;2023-07-13T10:21:42;16.60;99.90
59301;DHT22;45073;52.740;6.784;2023-07-13T10:24:33;16.70;99.90
59301;DHT22;45073;52.740;6.784;2023-07-13T10:29:34;16.90;99.90
59301;DHT22;45073;52.740;6.784;2023-07-13T10:32:01;17.20;99.90
59301;DHT22;45073;52.740;6.784;2023-07-13T10:34:27;17.40;99.90
59301;DHT22;45073;52.740;6.784;2023-07-13T10:36:53;17.60;99.90
59301;DHT22;45073;52.740;6.784;2023-07-13T10:39:22;17.90;99.90
59301;DHT22;45073;52.740;6.784;2023-07-13T10:41:55;18.00;99.90
59301;DHT22;45073;52.740;6.784;2023-07-13T10:44:26;18.20;99.90
59301;DHT22;45073;52.740;6.784;2023-07-13T10:47:13;18.50;99.90
59301;DHT22;45073;52.740;6.784;2023-07-13T10:49:40;18.70;99.90
59301;DHT22;45073;52.740;6.784;2023-07-13T10:52:46;19.00;99.90
59301;DHT22;45073;52.740;6.784;2023-07-13T10:55:32;19.20;99.90
59301;DHT22;45073;52.740;6.784;2023-07-13T10:58:03;19.30;99.90
59301;DHT22;45073;52.740;6.784;2023-07-13T11:00:44;19.30;99.90
59301;DHT22;45073;52.740;6.784;2023-07-13T11:03:14;19.30;99.90
59301;DHT22;45073;52.740;6.784;2023-07-13T11:05:40;19.30;99.90
59301;DHT22;45073;52.740;6.784;2023-07-13T11:08:13;19.40;99.90
59301;DHT22;45073;52.740;6.784;2023-07-13T11:10:55;19.40;99.90
59301;DHT22;45073;52.740;6.784;2023-07-13T11:21:27;19.10;99.90
59301;DHT22;45073;52.740;6.784;2023-07-13T11:24:16;18.90;99.90
59301;DHT22;45073;52.740;6.784;2023-07-13T11:26:50;18.40;99.90
59301;DHT22;45073;52.740;6.784;2023-07-13T11:31:56;17.20;99.90
59301;DHT22;45073;52.740;6.784;2023-07-13T11:34:41;17.00;99.90
59301;DHT22;45073;52.740;6.784;2023-07-13T11:37:16;17.00;99.90
59301;DHT22;45073;52.740;6.784;2023-07-13T11:39:44;17.10;99.90
59301;DHT22;45073;52.740;6.784;2023-07-13T11:42:16;17.30;99.90
59301;DHT22;45073;52.740;6.784;2023-07-13T11:44:46;17.40;99.90
59301;DHT22;45073;52.740;6.784;2023-07-13T11:47:21;17.60;99.90
59301;DHT22;45073;52.740;6.784;2023-07-13T11:49:53;17.70;99.90
59301;DHT22;45073;52.740;6.784;2023-07-13T11:52:26;17.90;99.90
59301;DHT22;45073;52.740;6.784;2023-07-13T11:54:55;18.10;99.90
59301;DHT22;45073;52.740;6.784;2023-07-13T11:57:28;18.30;99.90
59301;DHT22;45073;52.740;6.784;2023-07-13T11:59:55;18.60;99.90
59301;DHT22;45073;52.740;6.784;2023-07-13T12:02:33;18.90;99.90
59301;DHT22;45073;52.740;6.784;2023-07-13T12:05:00;19.20;99.90
59301;DHT22;45073;52.740;6.784;2023-07-13T12:07:29;19.30;99.90
59301;DHT22;45073;52.740;6.784;2023-07-13T12:10:20;19.40;99.90
59301;DHT22;45073;52.740;6.784;2023-07-13T12:15:21;19.80;99.90
59301;DHT22;45073;52.740;6.784;2023-07-13T12:17:48;20.00;99.90
59301;DHT22;45073;52.740;6.784;2023-07-13T12:20:40;20.20;99.90
59301;DHT22;45073;52.740;6.784;2023-07-13T12:23:36;20.30;99.90
59301;DHT22;45073;52.740;6.784;2023-07-13T12:26:03;20.40;99.90
59301;DHT22;45073;52.740;6.784;2023-07-13T12:31:05;20.80;99.90
59301;DHT22;45073;52.740;6.784;2023-07-13T12:33:33;20.90;99.90
59301;DHT22;45073;52.740;6.784;2023-07-13T12:36:04;21.10;99.90
59301;DHT22;45073;52.740;6.784;2023-07-13T12:38:32;21.20;99.90
59301;DHT22;45073;52.740;6.784;2023-07-13T12:41:01;21.20;99.90
59301;DHT22;45073;52.740;6.784;2023-07-13T12:43:33;21.10;99.90
59301;DHT22;45073;52.740;6.784;2023-07-13T12:46:04;21.10;99.90
59301;DHT22;45073;52.740;6.784;2023-07-13T12:48:38;21.10;99.90
59301;DHT22;45073;52.740;6.784;2023-07-13T12:51:04;21.20;99.90
59301;DHT22;45073;52.740;6.784;2023-07-13T12:53:40;21.20;99.90
59301;DHT22;45073;52.740;6.784;2023-07-13T12:56:08;21.10;99.90
59301;DHT22;45073;52.740;6.784;2023-07-13T12:58:41;20.90;99.90
59301;DHT22;45073;52.740;6.784;2023-07-13T13:01:10;20.90;99.90
59301;DHT22;45073;52.740;6.784;2023-07-13T13:03:40;20.80;99.90
59301;DHT22;45073;52.740;6.784;2023-07-13T13:08:47;20.70;99.90
59301;DHT22;45073;52.740;6.784;2023-07-13T13:11:14;20.70;99.90
59301;DHT22;45073;52.740;6.784;2023-07-13T13:13:42;20.80;99.90
59301;DHT22;45073;52.740;6.784;2023-07-13T13:16:29;21.00;99.90
59301;DHT22;45073;52.740;6.784;2023-07-13T13:19:00;21.00;99.90
59301;DHT22;45073;52.740;6.784;2023-07-13T13:21:28;21.20;99.90
59301;DHT22;45073;52.740;6.784;2023-07-13T13:23:54;21.50;99.90
59301;DHT22;45073;52.740;6.784;2023-07-13T13:26:22;21.70;98.50
59301;DHT22;45073;52.740;6.784;2023-07-13T13:28:48;21.90;95.70
59301;DHT22;45073;52.740;6.784;2023-07-13T13:31:14;22.00;94.40
59301;DHT22;45073;52.740;6.784;2023-07-13T13:33:45;22.00;94.70
59301;DHT22;45073;52.740;6.784;2023-07-13T13:36:22;21.90;94.40
59301;DHT22;45073;52.740;6.784;2023-07-13T13:38:49;21.90;94.20
59301;DHT22;45073;52.740;6.784;2023-07-13T13:41:16;22.00;94.30
59301;DHT22;45073;52.740;6.784;2023-07-13T13:43:42;22.20;92.90
59301;DHT22;45073;52.740;6.784;2023-07-13T13:46:17;22.20;92.30
59301;DHT22;45073;52.740;6.784;2023-07-13T13:48:44;22.10;90.80
59301;DHT22;45073;52.740;6.784;2023-07-13T13:51:20;21.90;91.00
59301;DHT22;45073;52.740;6.784;2023-07-13T13:53:47;21.80;91.00
59301;DHT22;45073;52.740;6.784;2023-07-13T13:56:14;21.90;92.60
59301;DHT22;45073;52.740;6.784;2023-07-13T13:58:40;22.00;91.80
59301;DHT22;45073;52.740;6.784;2023-07-13T14:01:13;22.20;91.90
59301;DHT22;45073;52.740;6.784;2023-07-13T14:03:39;22.40;91.00
59301;DHT22;45073;52.740;6.784;2023-07-13T14:06:05;22.60;91.50
59301;DHT22;45073;52.740;6.784;2023-07-13T14:08:31;22.80;90.20
59301;DHT22;45073;52.740;6.784;2023-07-13T14:10:57;22.80;85.80
59301;DHT22;45073;52.740;6.784;2023-07-13T14:13:50;22.60;83.40
59301;DHT22;45073;52.740;6.784;2023-07-13T14:16:20;22.40;80.90
59301;DHT22;45073;52.740;6.784;2023-07-13T14:18:47;22.30;79.70
59301;DHT22;45073;52.740;6.784;2023-07-13T14:21:19;22.50;82.00
59301;DHT22;45073;52.740;6.784;2023-07-13T14:23:45;22.70;81.50
59301;DHT22;45073;52.740;6.784;2023-07-13T14:28:43;22.90;79.50
59301;DHT22;45073;52.740;6.784;2023-07-13T14:31:12;23.00;78.80
59301;DHT22;45073;52.740;6.784;2023-07-13T14:33:38;23.00;81.50
59301;DHT22;45073;52.740;6.784;2023-07-13T14:36:17;23.10;80.80
59301;DHT22;45073;52.740;6.784;2023-07-13T14:38:46;23.20;80.20
59301;DHT22;45073;52.740;6.784;2023-07-13T14:41:12;23.30;76.40
59301;DHT22;45073;52.740;6.784;2023-07-13T14:43:37;23.20;74.50
59301;DHT22;45073;52.740;6.784;2023-07-13T14:46:03;23.10;74.10
59301;DHT22;45073;52.740;6.784;2023-07-13T14:48:30;23.20;75.10
59301;DHT22;45073;52.740;6.784;2023-07-13T14:50:58;23.10;74.00
59301;DHT22;45073;52.740;6.784;2023-07-13T14:53:25;23.20;73.10
59301;DHT22;45073;52.740;6.784;2023-07-13T14:55:53;23.20;72.80
59301;DHT22;45073;52.740;6.784;2023-07-13T14:58:18;23.10;73.40
59301;DHT22;45073;52.740;6.784;2023-07-13T15:00:44;23.10;75.00
59301;DHT22;45073;52.740;6.784;2023-07-13T15:03:23;23.20;74.60
59301;DHT22;45073;52.740;6.784;2023-07-13T15:05:50;23.10;74.40
59301;DHT22;45073;52.740;6.784;2023-07-13T15:08:16;23.20;74.50
59301;DHT22;45073;52.740;6.784;2023-07-13T15:10:41;23.20;73.00
59301;DHT22;45073;52.740;6.784;2023-07-13T15:13:18;23.20;75.80
59301;DHT22;45073;52.740;6.784;2023-07-13T15:15:49;23.20;72.50
59301;DHT22;45073;52.740;6.784;2023-07-13T15:18:18;23.10;74.80
59301;DHT22;45073;52.740;6.784;2023-07-13T15:20:45;23.20;77.00
59301;DHT22;45073;52.740;6.784;2023-07-13T15:23:13;23.20;76.80
59301;DHT22;45073;52.740;6.784;2023-07-13T15:25:40;23.30;76.50
59301;DHT22;45073;52.740;6.784;2023-07-13T15:28:06;23.40;78.70
59301;DHT22;45073;52.740;6.784;2023-07-13T15:30:36;23.50;78.20
59301;DHT22;45073;52.740;6.784;2023-07-13T15:33:16;23.50;77.40
59301;DHT22;45073;52.740;6.784;2023-07-13T15:35:45;23.40;72.40
59301;DHT22;45073;52.740;6.784;2023-07-13T15:38:18;23.20;72.40
59301;DHT22;45073;52.740;6.784;2023-07-13T15:40:45;23.10;73.30
59301;DHT22;45073;52.740;6.784;2023-07-13T15:43:15;23.10;74.90
59301;DHT22;45073;52.740;6.784;2023-07-13T15:45:42;23.20;75.20
59301;DHT22;45073;52.740;6.784;2023-07-13T15:48:23;23.30;75.80
59301;DHT22;45073;52.740;6.784;2023-07-13T15:50:50;23.40;74.70
59301;DHT22;45073;52.740;6.784;2023-07-13T15:53:20;23.30;74.10
59301;DHT22;45073;52.740;6.784;2023-07-13T15:55:46;23.30;73.40
59301;DHT22;45073;52.740;6.784;2023-07-13T15:58:13;23.30;75.90
59301;DHT22;45073;52.740;6.784;2023-07-13T16:00:40;23.40;76.00
59301;DHT22;45073;52.740;6.784;2023-07-13T16:03:07;23.50;75.20
59301;DHT22;45073;52.740;6.784;2023-07-13T16:05:33;23.50;74.60
59301;DHT22;45073;52.740;6.784;2023-07-13T16:07:59;23.50;76.40
59301;DHT22;45073;52.740;6.784;2023-07-13T16:10:39;23.50;75.60
59301;DHT22;45073;52.740;6.784;2023-07-13T16:13:13;23.40;77.10
59301;DHT22;45073;52.740;6.784;2023-07-13T16:15:39;23.40;76.40
59301;DHT22;45073;52.740;6.784;2023-07-13T16:18:10;23.40;76.80
59301;DHT22;45073;52.740;6.784;2023-07-13T16:20:37;23.40;76.20
59301;DHT22;45073;52.740;6.784;2023-07-13T16:23:03;23.60;77.40
59301;DHT22;45073;52.740;6.784;2023-07-13T16:25:29;23.60;77.00
59301;DHT22;45073;52.740;6.784;2023-07-13T16:27:56;23.50;76.60
59301;DHT22;45073;52.740;6.784;2023-07-13T16:30:26;23.30;75.10
59301;DHT22;45073;52.740;6.784;2023-07-13T16:32:53;23.30;74.50